sensor_id;sensor_type;location;lat;lon;timestamp;pressure;altitude;pressure_sealevel;temperature;humidity
33422;BME280;19763;55.798;37.782;2022-08-21T00:00:16;100466.50;;;18.03;46.96
33422;BME280;19763;55.798;37.782;2022-08-21T00:02:48;100455.19;;;17.79;47.29
33422;BME280;19763;55.798;37.782;2022-08-21T00:05:15;100501.06;;;18.35;47.08
33422;BME280;19763;55.798;37.782;2022-08-21T00:07:40;100503.50;;;18.18;46.76
33422;BME280;19763;55.798;37.782;2022-08-21T00:10:06;100503.66;;;18.15;47.00
33422;BME280;19763;55.798;37.782;2022-08-21T00:12:32;100501.44;;;18.04;47.19
33422;BME280;19763;55.798;37.782;2022-08-21T00:14:58;100498.94;;;18.01;47.45
33422;BME280;19763;55.798;37.782;2022-08-21T00:17:24;100498.88;;;18.02;47.55
33422;BME280;19763;55.798;37.782;2022-08-21T00:19:50;100501.75;;;18.18;47.34
33422;BME280;19763;55.798;37.782;2022-08-21T00:22:16;100500.72;;;18.00;47.77
33422;BME280;19763;55.798;37.782;2022-08-21T00:24:42;100503.78;;;18.11;47.29
33422;BME280;19763;55.798;37.782;2022-08-21T00:27:08;100503.22;;;18.03;47.32
33422;BME280;19763;55.798;37.782;2022-08-21T00:29:34;100502.19;;;18.07;47.04
33422;BME280;19763;55.798;37.782;2022-08-21T00:31:59;100504.56;;;18.14;47.73
33422;BME280;19763;55.798;37.782;2022-08-21T00:34:25;100494.72;;;17.97;47.68
33422;BME280;19763;55.798;37.782;2022-08-21T00:36:51;100465.31;;;17.88;47.56
33422;BME280;19763;55.798;37.782;2022-08-21T00:39:17;100494.88;;;18.16;46.95
33422;BME280;19763;55.798;37.782;2022-08-21T00:41:43;100493.16;;;18.15;47.04
33422;BME280;19763;55.798;37.782;2022-08-21T00:44:11;100440.63;;;17.72;46.73
33422;BME280;19763;55.798;37.782;2022-08-21T00:46:38;100490.03;;;18.05;47.44
33422;BME280;19763;55.798;37.782;2022-08-21T00:49:05;100488.22;;;17.83;47.46
33422;BME280;19763;55.798;37.782;2022-08-21T00:51:37;100481.34;;;17.81;47.36
33422;BME280;19763;55.798;37.782;2022-08-21T00:54:04;100489.53;;;17.95;47.42
33422;BME280;19763;55.798;37.782;2022-08-21T00:56:30;100490.56;;;17.91;47.78
33422;BME280;19763;55.798;37.782;2022-08-21T00:58:56;100490.28;;;17.75;47.72
33422;BME280;19763;55.798;37.782;2022-08-21T01:01:23;100496.94;;;17.84;48.07
33422;BME280;19763;55.798;37.782;2022-08-21T01:03:49;100487.16;;;17.89;47.57
33422;BME280;19763;55.798;37.782;2022-08-21T01:06:15;100488.81;;;17.90;47.67
33422;BME280;19763;55.798;37.782;2022-08-21T01:08:41;100482.44;;;17.99;46.98
33422;BME280;19763;55.798;37.782;2022-08-21T01:11:07;100489.19;;;18.04;47.22
33422;BME280;19763;55.798;37.782;2022-08-21T01:13:36;100488.66;;;17.96;46.90
33422;BME280;19763;55.798;37.782;2022-08-21T01:16:04;100493.75;;;17.75;47.50
33422;BME280;19763;55.798;37.782;2022-08-21T01:18:31;100501.22;;;17.86;47.57
33422;BME280;19763;55.798;37.782;2022-08-21T01:21:01;100494.84;;;17.93;47.68
33422;BME280;19763;55.798;37.782;2022-08-21T01:23:26;100499.50;;;18.09;47.06
33422;BME280;19763;55.798;37.782;2022-08-21T01:25:52;100494.06;;;17.91;47.64
33422;BME280;19763;55.798;37.782;2022-08-21T01:28:19;100438.91;;;17.49;47.70
33422;BME280;19763;55.798;37.782;2022-08-21T01:30:46;100490.56;;;17.91;47.14
33422;BME280;19763;55.798;37.782;2022-08-21T01:33:12;100488.16;;;17.85;47.45
33422;BME280;19763;55.798;37.782;2022-08-21T01:35:38;100496.66;;;17.44;48.70
33422;BME280;19763;55.798;37.782;2022-08-21T01:38:04;100486.63;;;17.79;47.81
33422;BME280;19763;55.798;37.782;2022-08-21T01:40:29;100482.88;;;17.63;47.91
33422;BME280;19763;55.798;37.782;2022-08-21T01:42:55;100484.25;;;17.73;48.46
33422;BME280;19763;55.798;37.782;2022-08-21T01:45:21;100483.88;;;17.36;48.69
33422;BME280;19763;55.798;37.782;2022-08-21T01:47:47;100481.81;;;17.45;49.29
33422;BME280;19763;55.798;37.782;2022-08-21T01:50:16;100464.84;;;17.31;48.51
33422;BME280;19763;55.798;37.782;2022-08-21T01:52:43;100486.81;;;17.51;48.70
33422;BME280;19763;55.798;37.782;2022-08-21T01:55:10;100471.44;;;17.65;47.64
33422;BME280;19763;55.798;37.782;2022-08-21T01:57:36;100473.03;;;17.46;48.62
33422;BME280;19763;55.798;37.782;2022-08-21T02:00:05;100492.59;;;17.60;48.62
33422;BME280;19763;55.798;37.782;2022-08-21T02:02:31;100486.06;;;17.47;48.61
33422;BME280;19763;55.798;37.782;2022-08-21T02:04:56;100477.03;;;17.32;48.83
33422;BME280;19763;55.798;37.782;2022-08-21T02:07:22;100491.56;;;17.41;49.46
33422;BME280;19763;55.798;37.782;2022-08-21T02:09:47;100487.59;;;17.54;48.74
33422;BME280;19763;55.798;37.782;2022-08-21T02:12:13;100496.09;;;17.59;48.63
33422;BME280;19763;55.798;37.782;2022-08-21T02:14:39;100492.75;;;17.32;49.04
33422;BME280;19763;55.798;37.782;2022-08-21T02:17:04;100492.97;;;17.26;48.88
33422;BME280;19763;55.798;37.782;2022-08-21T02:19:30;100478.50;;;17.39;49.06
33422;BME280;19763;55.798;37.782;2022-08-21T02:21:56;100490.81;;;17.37;48.95
33422;BME280;19763;55.798;37.782;2022-08-21T02:24:21;100495.53;;;17.28;49.21
33422;BME280;19763;55.798;37.782;2022-08-21T02:26:47;100503.81;;;17.40;49.09
33422;BME280;19763;55.798;37.782;2022-08-21T02:29:12;100507.03;;;17.47;49.09
33422;BME280;19763;55.798;37.782;2022-08-21T02:31:38;100488.88;;;17.42;48.79
33422;BME280;19763;55.798;37.782;2022-08-21T02:34:04;100497.22;;;17.29;49.37
33422;BME280;19763;55.798;37.782;2022-08-21T02:36:30;100497.75;;;17.38;49.13
33422;BME280;19763;55.798;37.782;2022-08-21T02:38:56;100504.06;;;17.33;48.84
33422;BME280;19763;55.798;37.782;2022-08-21T02:41:23;100500.13;;;17.21;49.31
33422;BME280;19763;55.798;37.782;2022-08-21T02:43:49;100495.00;;;17.18;49.88
33422;BME280;19763;55.798;37.782;2022-08-21T02:46:17;100489.19;;;17.10;50.00
33422;BME280;19763;55.798;37.782;2022-08-21T02:48:44;100499.06;;;17.27;49.30
33422;BME280;19763;55.798;37.782;2022-08-21T02:51:16;100513.88;;;17.28;49.67
33422;BME280;19763;55.798;37.782;2022-08-21T02:53:43;100503.97;;;17.36;49.74
33422;BME280;19763;55.798;37.782;2022-08-21T02:56:11;100501.38;;;17.34;49.67
33422;BME280;19763;55.798;37.782;2022-08-21T02:58:40;100466.03;;;17.22;49.31
33422;BME280;19763;55.798;37.782;2022-08-21T03:01:07;100507.97;;;17.46;49.93
33422;BME280;19763;55.798;37.782;2022-08-21T03:03:36;100504.34;;;17.25;49.90
33422;BME280;19763;55.798;37.782;2022-08-21T03:06:04;100513.50;;;17.37;49.55
33422;BME280;19763;55.798;37.782;2022-08-21T03:08:30;100511.78;;;17.37;49.64
33422;BME280;19763;55.798;37.782;2022-08-21T03:10:55;100506.19;;;17.23;49.52
33422;BME280;19763;55.798;37.782;2022-08-21T03:13:21;100503.91;;;17.37;49.15
33422;BME280;19763;55.798;37.782;2022-08-21T03:15:48;100505.78;;;17.34;49.63
33422;BME280;19763;55.798;37.782;2022-08-21T03:18:14;100504.13;;;17.31;49.57
33422;BME280;19763;55.798;37.782;2022-08-21T03:20:41;100507.19;;;17.42;49.29
33422;BME280;19763;55.798;37.782;2022-08-21T03:23:07;100512.13;;;17.52;49.36
33422;BME280;19763;55.798;37.782;2022-08-21T03:25:34;100506.00;;;17.28;49.65
33422;BME280;19763;55.798;37.782;2022-08-21T03:28:01;100508.69;;;17.50;49.10
33422;BME280;19763;55.798;37.782;2022-08-21T03:30:27;100511.66;;;17.40;49.79
33422;BME280;19763;55.798;37.782;2022-08-21T03:32:53;100503.81;;;17.40;49.61
33422;BME280;19763;55.798;37.782;2022-08-21T03:35:19;100517.50;;;17.47;49.14
33422;BME280;19763;55.798;37.782;2022-08-21T03:37:46;100518.16;;;17.29;49.61
33422;BME280;19763;55.798;37.782;2022-08-21T03:40:14;100500.16;;;17.45;49.99
33422;BME280;19763;55.798;37.782;2022-08-21T03:42:40;100516.94;;;17.63;49.21
33422;BME280;19763;55.798;37.782;2022-08-21T03:45:07;100514.94;;;17.69;49.06
33422;BME280;19763;55.798;37.782;2022-08-21T03:47:33;100520.09;;;17.49;49.41
33422;BME280;19763;55.798;37.782;2022-08-21T03:50:01;100526.13;;;17.74;49.05
33422;BME280;19763;55.798;37.782;2022-08-21T03:52:26;100526.00;;;17.77;48.87
33422;BME280;19763;55.798;37.782;2022-08-21T03:54:52;100520.97;;;17.71;48.71
33422;BME280;19763;55.798;37.782;2022-08-21T03:57:17;100525.03;;;17.80;49.03
33422;BME280;19763;55.798;37.782;2022-08-21T03:59:43;100511.53;;;17.91;48.64
33422;BME280;19763;55.798;37.782;2022-08-21T04:02:10;100515.22;;;17.85;48.28
33422;BME280;19763;55.798;37.782;2022-08-21T04:04:36;100516.31;;;17.80;48.71
33422;BME280;19763;55.798;37.782;2022-08-21T04:07:02;100510.72;;;17.65;48.83
33422;BME280;19763;55.798;37.782;2022-08-21T04:09:28;100504.47;;;17.69;48.68
33422;BME280;19763;55.798;37.782;2022-08-21T04:11:56;100517.78;;;18.10;48.50
33422;BME280;19763;55.798;37.782;2022-08-21T04:14:22;100503.22;;;18.03;48.61
33422;BME280;19763;55.798;37.782;2022-08-21T04:16:47;100502.06;;;17.87;48.31
33422;BME280;19763;55.798;37.782;2022-08-21T04:19:13;100511.72;;;18.08;48.58
33422;BME280;19763;55.798;37.782;2022-08-21T04:21:40;100517.41;;;18.20;48.31
33422;BME280;19763;55.798;37.782;2022-08-21T04:24:07;100509.91;;;18.10;47.33
33422;BME280;19763;55.798;37.782;2022-08-21T04:26:37;100512.00;;;18.24;47.84
33422;BME280;19763;55.798;37.782;2022-08-21T04:29:03;100512.16;;;18.20;48.01
33422;BME280;19763;55.798;37.782;2022-08-21T04:31:32;100515.88;;;18.36;47.23
33422;BME280;19763;55.798;37.782;2022-08-21T04:33:58;100517.53;;;18.39;47.16
33422;BME280;19763;55.798;37.782;2022-08-21T04:36:24;100519.97;;;18.43;47.68
33422;BME280;19763;55.798;37.782;2022-08-21T04:38:50;100527.16;;;18.38;47.44
33422;BME280;19763;55.798;37.782;2022-08-21T04:41:16;100517.91;;;18.07;47.11
33422;BME280;19763;55.798;37.782;2022-08-21T04:43:42;100526.50;;;18.33;47.00
33422;BME280;19763;55.798;37.782;2022-08-21T04:46:08;100524.72;;;18.34;47.27
33422;BME280;19763;55.798;37.782;2022-08-21T04:48:34;100522.25;;;18.51;47.35
33422;BME280;19763;55.798;37.782;2022-08-21T04:51:05;100524.44;;;18.41;47.63
33422;BME280;19763;55.798;37.782;2022-08-21T04:54:00;100524.50;;;18.40;47.45
33422;BME280;19763;55.798;37.782;2022-08-21T04:56:34;100525.63;;;18.33;46.63
33422;BME280;19763;55.798;37.782;2022-08-21T04:59:04;100496.69;;;18.14;47.81
33422;BME280;19763;55.798;37.782;2022-08-21T05:01:34;100474.34;;;18.25;47.03
33422;BME280;19763;55.798;37.782;2022-08-21T05:04:02;100487.38;;;18.49;47.50
33422;BME280;19763;55.798;37.782;2022-08-21T05:06:32;100486.94;;;18.60;46.79
33422;BME280;19763;55.798;37.782;2022-08-21T05:08:59;100526.38;;;19.01;46.40
33422;BME280;19763;55.798;37.782;2022-08-21T05:11:25;100511.72;;;18.95;45.88
33422;BME280;19763;55.798;37.782;2022-08-21T05:13:51;100524.25;;;19.09;46.03
33422;BME280;19763;55.798;37.782;2022-08-21T05:16:17;100514.63;;;19.10;45.52
33422;BME280;19763;55.798;37.782;2022-08-21T05:18:43;100519.63;;;19.35;46.19
33422;BME280;19763;55.798;37.782;2022-08-21T05:21:08;100522.16;;;19.37;45.99
33422;BME280;19763;55.798;37.782;2022-08-21T05:23:35;100518.78;;;19.54;45.41
33422;BME280;19763;55.798;37.782;2022-08-21T05:26:02;100516.53;;;19.65;46.34
33422;BME280;19763;55.798;37.782;2022-08-21T05:28:27;100518.59;;;19.77;44.99
33422;BME280;19763;55.798;37.782;2022-08-21T05:30:53;100510.50;;;19.63;44.69
33422;BME280;19763;55.798;37.782;2022-08-21T05:33:19;100513.41;;;19.57;43.83
33422;BME280;19763;55.798;37.782;2022-08-21T05:35:45;100506.88;;;19.65;43.81
33422;BME280;19763;55.798;37.782;2022-08-21T05:38:10;100507.63;;;19.88;44.28
33422;BME280;19763;55.798;37.782;2022-08-21T05:40:36;100511.06;;;20.08;43.81
33422;BME280;19763;55.798;37.782;2022-08-21T05:43:03;100504.94;;;19.90;43.57
33422;BME280;19763;55.798;37.782;2022-08-21T05:45:31;100497.16;;;20.06;43.43
33422;BME280;19763;55.798;37.782;2022-08-21T05:47:57;100509.09;;;20.30;43.39
33422;BME280;19763;55.798;37.782;2022-08-21T05:50:24;100507.72;;;20.41;42.67
33422;BME280;19763;55.798;37.782;2022-08-21T05:52:49;100501.03;;;20.52;42.92
33422;BME280;19763;55.798;37.782;2022-08-21T05:55:15;100503.34;;;20.59;42.57
33422;BME280;19763;55.798;37.782;2022-08-21T05:57:41;100505.72;;;20.63;41.01
33422;BME280;19763;55.798;37.782;2022-08-21T06:00:10;100495.53;;;20.75;40.42
33422;BME280;19763;55.798;37.782;2022-08-21T06:02:38;100499.03;;;20.93;41.30
33422;BME280;19763;55.798;37.782;2022-08-21T06:05:04;100505.28;;;21.08;41.18
33422;BME280;19763;55.798;37.782;2022-08-21T06:07:30;100499.56;;;20.99;39.72
33422;BME280;19763;55.798;37.782;2022-08-21T06:09:55;100499.38;;;21.20;39.46
33422;BME280;19763;55.798;37.782;2022-08-21T06:12:21;100500.94;;;21.40;40.24
33422;BME280;19763;55.798;37.782;2022-08-21T06:14:47;100493.63;;;21.29;37.99
33422;BME280;19763;55.798;37.782;2022-08-21T06:17:12;100502.31;;;21.47;38.81
33422;BME280;19763;55.798;37.782;2022-08-21T06:19:40;100490.94;;;21.47;37.33
33422;BME280;19763;55.798;37.782;2022-08-21T06:22:06;100487.97;;;21.53;37.81
33422;BME280;19763;55.798;37.782;2022-08-21T06:24:32;100493.69;;;21.77;38.20
33422;BME280;19763;55.798;37.782;2022-08-21T06:26:58;100491.13;;;21.92;38.82
33422;BME280;19763;55.798;37.782;2022-08-21T06:29:23;100491.84;;;21.95;37.64
33422;BME280;19763;55.798;37.782;2022-08-21T06:31:51;100450.50;;;21.80;37.81
33422;BME280;19763;55.798;37.782;2022-08-21T06:34:17;100494.38;;;21.97;36.77
33422;BME280;19763;55.798;37.782;2022-08-21T06:36:43;100483.13;;;21.93;36.59
33422;BME280;19763;55.798;37.782;2022-08-21T06:39:09;100485.88;;;21.92;36.62
33422;BME280;19763;55.798;37.782;2022-08-21T06:41:35;100490.97;;;22.11;36.33
33422;BME280;19763;55.798;37.782;2022-08-21T06:44:01;100482.34;;;22.23;36.10
33422;BME280;19763;55.798;37.782;2022-08-21T06:46:28;100479.31;;;22.15;35.87
33422;BME280;19763;55.798;37.782;2022-08-21T06:48:55;100484.31;;;22.35;36.75
33422;BME280;19763;55.798;37.782;2022-08-21T06:51:21;100471.53;;;22.44;36.21
33422;BME280;19763;55.798;37.782;2022-08-21T06:53:48;100476.94;;;22.56;37.16
33422;BME280;19763;55.798;37.782;2022-08-21T06:56:14;100473.63;;;22.67;36.05
33422;BME280;19763;55.798;37.782;2022-08-21T06:58:39;100467.72;;;22.64;35.14
33422;BME280;19763;55.798;37.782;2022-08-21T07:01:05;100474.63;;;22.81;35.74
33422;BME280;19763;55.798;37.782;2022-08-21T07:03:34;100436.66;;;22.67;35.19
33422;BME280;19763;55.798;37.782;2022-08-21T07:06:01;100469.66;;;22.90;35.07
33422;BME280;19763;55.798;37.782;2022-08-21T07:08:27;100464.91;;;23.10;35.42
33422;BME280;19763;55.798;37.782;2022-08-21T07:10:57;100478.19;;;23.24;34.64
33422;BME280;19763;55.798;37.782;2022-08-21T07:13:23;100464.19;;;23.37;35.43
33422;BME280;19763;55.798;37.782;2022-08-21T07:15:48;100469.78;;;23.18;33.38
33422;BME280;19763;55.798;37.782;2022-08-21T07:18:14;100472.63;;;23.29;33.28
33422;BME280;19763;55.798;37.782;2022-08-21T07:20:41;100468.34;;;23.41;34.10
33422;BME280;19763;55.798;37.782;2022-08-21T07:23:26;100464.75;;;23.56;33.51
33422;BME280;19763;55.798;37.782;2022-08-21T07:25:53;100465.84;;;23.67;33.29
33422;BME280;19763;55.798;37.782;2022-08-21T07:28:19;100458.84;;;23.80;32.97
33422;BME280;19763;55.798;37.782;2022-08-21T07:30:45;100466.00;;;23.78;31.82
33422;BME280;19763;55.798;37.782;2022-08-21T07:33:11;100461.00;;;23.88;32.11
33422;BME280;19763;55.798;37.782;2022-08-21T07:35:37;100454.94;;;23.86;31.58
33422;BME280;19763;55.798;37.782;2022-08-21T07:38:03;100459.97;;;23.90;32.37
33422;BME280;19763;55.798;37.782;2022-08-21T07:40:29;100461.31;;;24.10;32.25
33422;BME280;19763;55.798;37.782;2022-08-21T07:42:54;100458.34;;;24.15;33.04
33422;BME280;19763;55.798;37.782;2022-08-21T07:45:21;100459.84;;;24.19;31.82
33422;BME280;19763;55.798;37.782;2022-08-21T07:47:50;100457.31;;;24.18;31.90
33422;BME280;19763;55.798;37.782;2022-08-21T07:50:16;100452.84;;;24.18;31.78
33422;BME280;19763;55.798;37.782;2022-08-21T07:52:43;100451.19;;;24.17;30.82
33422;BME280;19763;55.798;37.782;2022-08-21T07:55:11;100411.72;;;24.00;30.63
33422;BME280;19763;55.798;37.782;2022-08-21T07:57:38;100443.13;;;24.19;31.25
33422;BME280;19763;55.798;37.782;2022-08-21T08:00:06;100450.94;;;24.07;29.80
33422;BME280;19763;55.798;37.782;2022-08-21T08:02:32;100461.69;;;24.32;30.90
33422;BME280;19763;55.798;37.782;2022-08-21T08:05:03;100436.13;;;24.18;29.16
33422;BME280;19763;55.798;37.782;2022-08-21T08:07:30;100447.59;;;24.44;29.74
33422;BME280;19763;55.798;37.782;2022-08-21T08:09:56;100458.13;;;24.58;30.60
33422;BME280;19763;55.798;37.782;2022-08-21T08:12:21;100445.09;;;24.55;29.24
33422;BME280;19763;55.798;37.782;2022-08-21T08:14:47;100448.31;;;24.60;29.64
33422;BME280;19763;55.798;37.782;2022-08-21T08:17:13;100444.28;;;24.68;29.59
33422;BME280;19763;55.798;37.782;2022-08-21T08:19:39;100449.16;;;24.61;29.54
33422;BME280;19763;55.798;37.782;2022-08-21T08:22:13;100407.59;;;24.49;29.17
33422;BME280;19763;55.798;37.782;2022-08-21T08:24:39;100424.91;;;24.67;30.14
33422;BME280;19763;55.798;37.782;2022-08-21T08:27:05;100436.88;;;24.86;29.57
33422;BME280;19763;55.798;37.782;2022-08-21T08:29:30;100431.25;;;24.90;28.40
33422;BME280;19763;55.798;37.782;2022-08-21T08:31:56;100422.66;;;24.99;28.44
33422;BME280;19763;55.798;37.782;2022-08-21T08:34:23;100427.94;;;24.99;27.58
33422;BME280;19763;55.798;37.782;2022-08-21T08:36:48;100413.94;;;25.10;27.78
33422;BME280;19763;55.798;37.782;2022-08-21T08:39:14;100409.78;;;25.32;28.33
33422;BME280;19763;55.798;37.782;2022-08-21T08:41:40;100416.91;;;25.31;27.80
33422;BME280;19763;55.798;37.782;2022-08-21T08:44:07;100398.44;;;25.30;27.59
33422;BME280;19763;55.798;37.782;2022-08-21T08:46:41;100397.78;;;25.26;26.67
33422;BME280;19763;55.798;37.782;2022-08-21T08:54:33;100390.25;;;25.46;26.74
33422;BME280;19763;55.798;37.782;2022-08-21T08:57:03;100357.41;;;25.36;26.90
33422;BME280;19763;55.798;37.782;2022-08-21T08:59:48;100377.94;;;25.69;27.12
33422;BME280;19763;55.798;37.782;2022-08-21T09:02:16;100416.56;;;25.97;26.50
33422;BME280;19763;55.798;37.782;2022-08-21T09:04:44;100397.31;;;25.82;25.74
33422;BME280;19763;55.798;37.782;2022-08-21T09:10:20;100363.66;;;25.83;25.46
33422;BME280;19763;55.798;37.782;2022-08-21T09:13:12;100407.25;;;26.16;25.44
33422;BME280;19763;55.798;37.782;2022-08-21T09:15:46;100376.84;;;26.20;25.69
33422;BME280;19763;55.798;37.782;2022-08-21T09:21:24;100357.28;;;25.86;24.50
33422;BME280;19763;55.798;37.782;2022-08-21T09:27:08;100397.75;;;26.00;25.15
33422;BME280;19763;55.798;37.782;2022-08-21T09:29:37;100413.78;;;26.23;25.67
33422;BME280;19763;55.798;37.782;2022-08-21T09:32:31;100407.38;;;26.26;24.98
33422;BME280;19763;55.798;37.782;2022-08-21T09:37:35;100401.13;;;26.27;25.56
33422;BME280;19763;55.798;37.782;2022-08-21T09:40:20;100396.84;;;26.13;25.22
33422;BME280;19763;55.798;37.782;2022-08-21T09:42:55;100392.84;;;26.07;24.38
33422;BME280;19763;55.798;37.782;2022-08-21T09:45:22;100396.50;;;25.93;24.77
33422;BME280;19763;55.798;37.782;2022-08-21T09:47:47;100403.22;;;25.86;24.54
33422;BME280;19763;55.798;37.782;2022-08-21T09:50:17;100389.56;;;25.79;24.20
33422;BME280;19763;55.798;37.782;2022-08-21T09:52:46;100362.81;;;25.82;24.31
33422;BME280;19763;55.798;37.782;2022-08-21T09:55:20;100401.63;;;25.83;23.99
33422;BME280;19763;55.798;37.782;2022-08-21T09:58:06;100390.72;;;26.12;24.17
33422;BME280;19763;55.798;37.782;2022-08-21T10:00:34;100352.72;;;25.99;24.43
33422;BME280;19763;55.798;37.782;2022-08-21T10:03:10;100378.22;;;26.01;24.33
33422;BME280;19763;55.798;37.782;2022-08-21T10:05:37;100396.13;;;26.22;24.86
33422;BME280;19763;55.798;37.782;2022-08-21T10:08:03;100400.91;;;26.41;25.97
33422;BME280;19763;55.798;37.782;2022-08-21T10:10:30;100406.50;;;26.49;25.62
33422;BME280;19763;55.798;37.782;2022-08-21T10:24:31;100368.69;;;26.57;24.51
33422;BME280;19763;55.798;37.782;2022-08-21T10:27:11;100373.38;;;26.53;23.46
33422;BME280;19763;55.798;37.782;2022-08-21T10:35:40;100363.16;;;26.72;23.99
33422;BME280;19763;55.798;37.782;2022-08-21T10:40:54;100367.28;;;26.87;24.66
33422;BME280;19763;55.798;37.782;2022-08-21T10:43:36;100354.81;;;26.76;24.13
33422;BME280;19763;55.798;37.782;2022-08-21T10:46:19;100367.16;;;26.77;24.62
33422;BME280;19763;55.798;37.782;2022-08-21T10:49:03;100319.66;;;26.39;24.21
33422;BME280;19763;55.798;37.782;2022-08-21T10:51:48;100366.50;;;26.40;23.98
33422;BME280;19763;55.798;37.782;2022-08-21T10:56:51;100320.63;;;26.49;24.80
33422;BME280;19763;55.798;37.782;2022-08-21T10:59:30;100354.06;;;26.51;23.70
33422;BME280;19763;55.798;37.782;2022-08-21T11:02:08;100308.06;;;26.40;24.27
33422;BME280;19763;55.798;37.782;2022-08-21T11:07:30;100331.41;;;26.70;25.35
33422;BME280;19763;55.798;37.782;2022-08-21T11:10:06;100314.22;;;26.51;24.82
33422;BME280;19763;55.798;37.782;2022-08-21T11:26:33;100333.19;;;26.58;24.86
33422;BME280;19763;55.798;37.782;2022-08-21T11:29:12;100279.44;;;26.32;24.58
33422;BME280;19763;55.798;37.782;2022-08-21T11:31:54;100321.34;;;26.40;24.28
33422;BME280;19763;55.798;37.782;2022-08-21T11:34:44;100333.31;;;26.45;23.26
33422;BME280;19763;55.798;37.782;2022-08-21T11:46:44;100362.84;;;26.41;24.12
33422;BME280;19763;55.798;37.782;2022-08-21T11:49:23;100354.78;;;26.42;24.12
33422;BME280;19763;55.798;37.782;2022-08-21T11:54:36;100347.94;;;26.62;25.37
33422;BME280;19763;55.798;37.782;2022-08-21T11:57:15;100341.16;;;26.58;25.52
33422;BME280;19763;55.798;37.782;2022-08-21T12:02:23;100356.78;;;26.16;24.37
33422;BME280;19763;55.798;37.782;2022-08-21T12:04:55;100344.81;;;26.10;24.89
33422;BME280;19763;55.798;37.782;2022-08-21T12:07:40;100318.75;;;26.04;24.83
33422;BME280;19763;55.798;37.782;2022-08-21T12:10:13;100311.25;;;25.74;23.74
33422;BME280;19763;55.798;37.782;2022-08-21T12:12:42;100312.22;;;25.73;23.67
33422;BME280;19763;55.798;37.782;2022-08-21T12:15:31;100357.56;;;25.94;23.79
33422;BME280;19763;55.798;37.782;2022-08-21T12:18:00;100361.16;;;25.93;23.74
33422;BME280;19763;55.798;37.782;2022-08-21T12:20:40;100308.19;;;25.56;24.11
33422;BME280;19763;55.798;37.782;2022-08-21T12:23:15;100351.38;;;25.93;24.18
33422;BME280;19763;55.798;37.782;2022-08-21T12:25:48;100306.84;;;25.50;24.43
33422;BME280;19763;55.798;37.782;2022-08-21T12:28:24;100339.88;;;25.81;24.77
33422;BME280;19763;55.798;37.782;2022-08-21T12:30:50;100337.59;;;25.77;24.75
33422;BME280;19763;55.798;37.782;2022-08-21T12:35:48;100324.78;;;25.82;24.78
33422;BME280;19763;55.798;37.782;2022-08-21T12:39:01;100328.94;;;25.97;25.07
33422;BME280;19763;55.798;37.782;2022-08-21T12:41:04;100293.91;;;25.70;25.37
33422;BME280;19763;55.798;37.782;2022-08-21T12:43:45;100287.47;;;25.72;25.55
33422;BME280;19763;55.798;37.782;2022-08-21T12:46:30;100288.22;;;25.74;25.55
33422;BME280;19763;55.798;37.782;2022-08-21T12:49:01;100314.78;;;25.74;25.66
33422;BME280;19763;55.798;37.782;2022-08-21T12:51:48;100298.66;;;25.53;25.56
33422;BME280;19763;55.798;37.782;2022-08-21T12:54:28;100300.94;;;25.58;25.85
33422;BME280;19763;55.798;37.782;2022-08-21T12:57:03;100290.72;;;25.64;26.03
33422;BME280;19763;55.798;37.782;2022-08-21T12:59:30;100331.19;;;25.79;26.34
33422;BME280;19763;55.798;37.782;2022-08-21T13:01:58;100343.19;;;25.96;26.03
33422;BME280;19763;55.798;37.782;2022-08-21T13:04:38;100325.06;;;25.90;26.32
33422;BME280;19763;55.798;37.782;2022-08-21T13:07:10;100336.91;;;25.97;25.85
33422;BME280;19763;55.798;37.782;2022-08-21T13:09:59;100299.56;;;25.76;26.27
33422;BME280;19763;55.798;37.782;2022-08-21T13:12:27;100326.34;;;26.09;26.14
33422;BME280;19763;55.798;37.782;2022-08-21T13:14:57;100296.50;;;25.94;26.44
33422;BME280;19763;55.798;37.782;2022-08-21T13:17:24;100329.75;;;26.22;26.81
33422;BME280;19763;55.798;37.782;2022-08-21T13:20:04;100278.41;;;25.99;26.66
33422;BME280;19763;55.798;37.782;2022-08-21T13:22:30;100328.66;;;26.13;26.80
33422;BME280;19763;55.798;37.782;2022-08-21T13:24:57;100329.63;;;26.12;26.87
33422;BME280;19763;55.798;37.782;2022-08-21T13:27:30;100327.81;;;26.13;26.87
33422;BME280;19763;55.798;37.782;2022-08-21T13:30:18;100344.72;;;26.23;26.64
33422;BME280;19763;55.798;37.782;2022-08-21T13:32:48;100338.72;;;25.97;26.96
33422;BME280;19763;55.798;37.782;2022-08-21T13:35:20;100286.03;;;25.68;27.22
33422;BME280;19763;55.798;37.782;2022-08-21T13:37:48;100319.63;;;25.92;27.29
33422;BME280;19763;55.798;37.782;2022-08-21T13:40:38;100323.59;;;26.10;27.73
33422;BME280;19763;55.798;37.782;2022-08-21T13:43:11;100322.88;;;26.08;27.36
33422;BME280;19763;55.798;37.782;2022-08-21T13:45:37;100322.25;;;26.05;27.48
33422;BME280;19763;55.798;37.782;2022-08-21T13:48:03;100324.66;;;26.08;27.95
33422;BME280;19763;55.798;37.782;2022-08-21T13:50:32;100319.28;;;25.96;27.94
33422;BME280;19763;55.798;37.782;2022-08-21T13:53:03;100307.19;;;25.92;27.81
33422;BME280;19763;55.798;37.782;2022-08-21T13:55:41;100325.47;;;25.97;27.88
33422;BME280;19763;55.798;37.782;2022-08-21T13:58:08;100302.34;;;25.75;27.71
33422;BME280;19763;55.798;37.782;2022-08-21T14:00:46;100256.88;;;25.44;28.38
33422;BME280;19763;55.798;37.782;2022-08-21T14:03:33;100311.81;;;25.90;28.26